Time;durP1;ratioP1;P1;durP2;ratioP2;P2;SDS_P1;SDS_P2;PMS_P1;PMS_P2;Temp;Humidity;BMP_temperature;BMP_pressure;BME280_temperature;BME280_humidity;BME280_pressure;Samples;Min_cycle;Max_cycle;Signal;HPM_P1;HPM_P2
2022/03/31 00:01:20;;;;;;;18.83;13.37;;;;;;;1.33;100.00;95069.09;10409355;28;20211;-57
2022/03/31 00:06:20;;;;;;;19.70;12.33;;;;;;;1.31;100.00;95065.03;10409668;28;20286;-58
2022/03/31 00:11:21;;;;;;;21.83;12.37;;;;;;;1.23;100.00;95068.31;10465951;23;20242;-60
2022/03/31 00:16:21;;;;;;;19.57;12.60;;;;;;;1.25;100.00;95072.34;10451802;28;20230;-60
2022/03/31 00:21:21;;;;;;;16.97;11.53;;;;;;;1.37;100.00;95070.44;10416418;28;20587;-58
2022/03/31 00:26:22;;;;;;;16.03;11.33;;;;;;;1.21;100.00;95075.34;10410513;28;20257;-59
2022/03/31 00:31:22;;;;;;;20.23;13.37;;;;;;;1.24;100.00;95072.50;10410558;28;20623;-59
2022/03/31 00:36:22;;;;;;;24.83;15.40;;;;;;;1.16;100.00;95072.38;10410422;28;20305;-56
2022/03/31 00:41:26;;;;;;;21.57;13.80;;;;;;;1.16;100.00;95067.22;10410096;28;20239;-57
2022/03/31 00:46:27;;;;;;;22.07;15.20;;;;;;;1.15;100.00;95070.75;10410590;28;20536;-55
2022/03/31 00:51:29;;;;;;;25.33;16.47;;;;;;;1.06;100.00;95055.16;10409925;28;20200;-55
2022/03/31 00:56:30;;;;;;;28.00;16.67;;;;;;;1.08;100.00;95043.91;10410303;28;20216;-54
2022/03/31 01:01:32;;;;;;;29.00;17.23;;;;;;;1.09;100.00;95048.94;10397511;28;20584;-58
2022/03/31 01:06:32;;;;;;;29.27;18.00;;;;;;;1.00;100.00;95035.09;10417449;28;20706;-55
2022/03/31 01:11:33;;;;;;;33.17;18.83;;;;;;;0.98;100.00;95036.19;10416954;28;20286;-55
2022/03/31 01:16:34;;;;;;;36.00;19.57;;;;;;;1.05;100.00;95037.25;10416806;28;20220;-56
2022/03/31 01:21:42;;;;;;;27.87;18.40;;;;;;;1.09;100.00;95041.19;10417100;28;20205;-56
2022/03/31 01:26:43;;;;;;;35.93;18.87;;;;;;;1.12;100.00;95040.06;10417007;28;20253;-57
2022/03/31 01:31:43;;;;;;;30.00;18.50;;;;;;;1.16;100.00;95036.28;10416496;28;20266;-58
2022/03/31 01:36:43;;;;;;;36.07;19.80;;;;;;;1.01;100.00;95043.63;10416800;28;20565;-58
2022/03/31 01:41:44;;;;;;;38.00;20.67;;;;;;;1.04;100.00;95038.19;10416043;28;20207;-56
2022/03/31 01:46:45;;;;;;;40.53;21.60;;;;;;;0.99;100.00;95025.72;10416351;28;20199;-57
2022/03/31 01:51:45;;;;;;;37.43;21.83;;;;;;;1.03;100.00;95036.59;10415992;28;20253;-57
2022/03/31 01:56:45;;;;;;;40.50;21.50;;;;;;;1.02;100.00;95033.19;10415557;28;20235;-59
2022/03/31 02:01:48;;;;;;;39.43;21.77;;;;;;;1.04;100.00;95031.28;10410924;28;20302;-56
2022/03/31 02:06:48;;;;;;;39.73;21.57;;;;;;;0.98;100.00;95028.44;10415350;28;20192;-54
2022/03/31 02:11:48;;;;;;;30.97;18.30;;;;;;;1.01;100.00;95018.69;10410288;28;20315;-56
2022/03/31 02:16:49;;;;;;;29.60;19.47;;;;;;;0.99;100.00;95020.56;10412072;28;20282;-56
2022/03/31 02:21:49;;;;;;;34.50;19.80;;;;;;;0.86;100.00;95020.06;10414763;28;20215;-56
2022/03/31 02:26:51;;;;;;;33.53;21.60;;;;;;;0.94;100.00;95017.59;10414922;28;20185;-58
2022/03/31 02:31:51;;;;;;;36.77;21.47;;;;;;;0.92;100.00;95014.38;10414282;28;20222;-55
2022/03/31 02:36:52;;;;;;;41.00;23.17;;;;;;;0.96;100.00;95013.13;10414442;28;20231;-55
2022/03/31 02:41:53;;;;;;;48.57;26.37;;;;;;;0.81;100.00;95017.09;10413856;28;20242;-55
2022/03/31 02:46:53;;;;;;;51.30;28.17;;;;;;;0.80;100.00;95007.75;10414015;28;20200;-55
2022/03/31 02:51:54;;;;;;;53.47;27.03;;;;;;;0.88;100.00;95007.84;10413177;28;20409;-55
2022/03/31 02:56:54;;;;;;;49.97;26.57;;;;;;;0.85;100.00;95001.19;10412917;28;20648;-58
2022/03/31 03:01:54;;;;;;;40.60;21.97;;;;;;;0.94;100.00;94996.97;10412718;28;20636;-57
2022/03/31 03:06:55;;;;;;;34.57;21.00;;;;;;;0.89;100.00;94994.03;10412343;28;20209;-58
2022/03/31 03:11:55;;;;;;;37.30;22.10;;;;;;;0.88;100.00;94990.59;10412347;28;20248;-58
2022/03/31 03:16:55;;;;;;;46.23;23.67;;;;;;;0.77;100.00;94989.97;10412648;28;20303;-55
2022/03/31 03:21:56;;;;;;;41.57;25.07;;;;;;;0.66;100.00;94989.19;10412002;28;20239;-54
2022/03/31 03:26:56;;;;;;;46.90;27.70;;;;;;;0.65;100.00;94982.38;10412338;28;20204;-54
2022/03/31 03:31:57;;;;;;;48.23;25.70;;;;;;;0.65;100.00;94982.38;10412151;28;20288;-56
2022/03/31 03:36:58;;;;;;;58.17;27.70;;;;;;;0.68;100.00;94987.25;10411849;28;20264;-54
2022/03/31 03:41:59;;;;;;;49.50;26.30;;;;;;;0.67;100.00;94989.97;10394251;28;20940;-57
2022/03/31 03:46:59;;;;;;;54.57;26.87;;;;;;;0.66;100.00;94975.50;10411695;28;20250;-57
2022/03/31 03:52:00;;;;;;;52.73;27.97;;;;;;;0.62;100.00;94971.56;10411488;28;20215;-55
2022/03/31 03:57:00;;;;;;;59.13;27.90;;;;;;;0.61;100.00;94970.72;10409865;28;20701;-55
2022/03/31 04:02:01;;;;;;;59.97;29.77;;;;;;;0.58;100.00;94968.41;10407981;28;20711;-55
2022/03/31 04:07:02;;;;;;;57.50;29.43;;;;;;;0.55;100.00;94976.44;10408509;28;20190;-58
2022/03/31 04:12:03;;;;;;;61.87;33.10;;;;;;;0.46;100.00;94983.25;10407857;28;20721;-54
2022/03/31 04:17:03;;;;;;;66.97;32.53;;;;;;;0.40;100.00;94978.63;10410425;28;20211;-54
2022/03/31 04:22:04;;;;;;;68.00;31.77;;;;;;;0.42;100.00;94978.50;10411114;28;20568;-54
2022/03/31 04:27:04;;;;;;;63.90;32.27;;;;;;;0.39;100.00;94971.84;10410687;28;20277;-59
2022/03/31 04:32:05;;;;;;;69.07;32.67;;;;;;;0.29;100.00;94977.00;10410900;28;20191;-59
2022/03/31 04:37:06;;;;;;;91.90;34.80;;;;;;;0.29;100.00;94971.88;10417752;28;20223;-58
2022/03/31 04:42:07;;;;;;;113.97;36.03;;;;;;;0.21;100.00;94973.47;10418873;28;20780;-59
2022/03/31 04:47:07;;;;;;;67.97;33.77;;;;;;;0.24;100.00;94971.44;10418756;28;20671;-59
2022/03/31 04:52:08;;;;;;;68.47;33.87;;;;;;;0.33;100.00;94972.41;10418452;28;20184;-59
2022/03/31 04:57:08;;;;;;;66.23;33.07;;;;;;;0.27;100.00;94978.91;10418299;28;20229;-56
2022/03/31 05:02:10;;;;;;;62.27;32.47;;;;;;;0.21;100.00;94974.28;10417918;28;20192;-60
2022/03/31 05:07:10;;;;;;;61.30;31.30;;;;;;;0.29;100.00;94977.00;10417953;28;20184;-59
2022/03/31 05:12:12;;;;;;;61.17;29.47;;;;;;;0.26;100.00;94976.44;10417360;28;20256;-55
2022/03/31 05:17:13;;;;;;;87.47;32.50;;;;;;;0.24;100.00;94975.78;10417609;28;20220;-58
2022/03/31 05:22:13;;;;;;;73.83;30.97;;;;;;;0.21;100.00;94971.72;10417328;28;20281;-54
2022/03/31 05:27:13;;;;;;;63.23;32.03;;;;;;;0.23;100.00;94976.72;10416875;28;20208;-54
2022/03/31 05:32:14;;;;;;;60.80;30.97;;;;;;;0.27;100.00;94972.94;10417118;28;20219;-55
2022/03/31 05:37:15;;;;;;;56.90;30.20;;;;;;;0.31;100.00;94979.44;10416502;28;20237;-56
2022/03/31 05:42:15;;;;;;;56.47;29.50;;;;;;;0.25;100.00;94982.56;10416838;28;20197;-55
2022/03/31 05:47:15;;;;;;;53.37;28.47;;;;;;;0.28;100.00;94984.88;10415733;28;20203;-56
2022/03/31 05:52:16;;;;;;;61.50;30.07;;;;;;;0.19;100.00;94996.00;10416200;28;20250;-56
2022/03/31 05:57:17;;;;;;;59.80;30.10;;;;;;;0.23;100.00;95005.88;10416093;28;20804;-56
2022/03/31 06:02:17;;;;;;;59.47;30.43;;;;;;;0.18;100.00;95000.31;10415655;28;20330;-56
2022/03/31 06:07:18;;;;;;;67.73;30.37;;;;;;;0.20;100.00;95003.59;10415616;28;20185;-56
2022/03/31 06:12:19;;;;;;;60.30;31.80;;;;;;;0.17;100.00;94999.50;10461034;23;20253;-52
2022/03/31 06:17:20;;;;;;;72.13;33.33;;;;;;;0.11;100.00;94989.75;10456346;28;20558;-52
2022/03/31 06:22:20;;;;;;;68.17;32.97;;;;;;;0.14;100.00;94991.25;10427387;28;20216;-51
2022/03/31 06:27:20;;;;;;;68.90;34.60;;;;;;;0.16;100.00;94997.88;10413863;28;20194;-53
2022/03/31 06:32:21;;;;;;;74.67;33.33;;;;;;;0.14;100.00;94994.63;10413186;28;20309;-55
2022/03/31 06:37:21;;;;;;;68.77;34.40;;;;;;;0.14;100.00;95001.53;10414156;28;20570;-55
2022/03/31 06:42:22;;;;;;;60.83;31.13;;;;;;;0.16;100.00;95007.38;10414007;28;20916;-56
2022/03/31 06:47:22;;;;;;;68.67;31.93;;;;;;;0.12;100.00;95003.41;10413649;28;20238;-57
2022/03/31 06:52:23;;;;;;;62.53;32.63;;;;;;;0.20;100.00;95003.59;10413898;28;20219;-51
2022/03/31 06:57:23;;;;;;;59.43;24.57;;;;;;;0.18;100.00;95013.19;10405590;28;20236;-54
2022/03/31 07:02:24;;;;;;;65.57;32.07;;;;;;;0.31;100.00;95013.75;10411688;28;20305;-54
2022/03/31 07:07:24;;;;;;;56.23;30.17;;;;;;;0.29;100.00;95014.81;10410547;28;20203;-52
2022/03/31 07:12:25;;;;;;;58.23;30.90;;;;;;;0.38;100.00;95013.19;10410379;28;20316;-52
2022/03/31 07:17:25;;;;;;;60.07;30.87;;;;;;;0.31;100.00;95010.34;10411393;28;20227;-52
2022/03/31 07:22:25;;;;;;;59.07;31.77;;;;;;;0.34;100.00;94997.22;10408662;28;20218;-52
2022/03/31 07:27:26;;;;;;;63.97;32.83;;;;;;;0.34;100.00;94998.00;10370186;28;20219;-51
2022/03/31 07:32:26;;;;;;;57.33;32.27;;;;;;;0.26;100.00;94991.91;10382419;28;20218;-51
2022/03/31 07:37:26;;;;;;;56.57;33.37;;;;;;;0.41;100.00;95000.84;10374371;28;20219;-56
2022/03/31 07:42:27;;;;;;;65.10;34.00;;;;;;;0.15;100.00;95003.16;10410082;28;20246;-56
2022/03/31 07:47:27;;;;;;;60.13;32.17;;;;;;;0.29;100.00;95013.06;10408879;28;20191;-55
2022/03/31 07:52:28;;;;;;;64.73;32.93;;;;;;;0.19;100.00;95006.28;10408174;28;20335;-55
2022/03/31 07:57:28;;;;;;;69.30;35.10;;;;;;;0.29;100.00;94989.91;10387169;28;20226;-55
2022/03/31 08:02:28;;;;;;;69.50;34.90;;;;;;;0.46;100.00;94992.72;10378772;28;20231;-52
2022/03/31 08:07:29;;;;;;;58.03;33.60;;;;;;;0.41;100.00;95000.03;10405551;28;20327;-53
2022/03/31 08:12:29;;;;;;;67.40;35.67;;;;;;;0.41;100.00;94994.88;10401178;28;20238;-53
2022/03/31 08:17:30;;;;;;;71.20;35.80;;;;;;;0.44;100.00;94994.63;10402261;28;20246;-54
2022/03/31 08:22:30;;;;;;;68.70;36.20;;;;;;;0.47;100.00;95000.31;10404684;28;20213;-56
2022/03/31 08:27:32;;;;;;;80.33;35.27;;;;;;;0.56;100.00;94998.69;10403552;28;20199;-51
2022/03/31 08:32:38;;;;;;;71.07;36.83;;;;;;;0.57;100.00;94995.16;10403834;28;20217;-53
2022/03/31 08:37:39;;;;;;;83.37;38.97;;;;;;;0.52;100.00;94997.31;10405785;28;20220;-58
2022/03/31 08:42:41;;;;;;;75.37;37.53;;;;;;;0.58;100.00;95004.50;10403946;28;20701;-51
2022/03/31 08:47:44;;;;;;;73.60;37.17;;;;;;;0.41;100.00;95000.03;10404769;28;20207;-52
2022/03/31 08:52:44;;;;;;;72.07;37.13;;;;;;;0.45;100.00;95009.94;10398868;28;20744;-52
2022/03/31 08:57:50;;;;;;;73.43;37.47;;;;;;;0.62;100.00;95008.44;10404781;28;20232;-52
2022/03/31 09:03:01;;;;;;;76.20;35.37;;;;;;;0.65;100.00;95013.31;10406242;28;20217;-56
2022/03/31 09:08:02;;;;;;;68.37;36.00;;;;;;;0.70;100.00;95008.56;10399844;28;20730;-54
2022/03/31 09:13:09;;;;;;;69.03;36.00;;;;;;;0.69;100.00;95013.88;10396317;28;20282;-58
2022/03/31 09:18:09;;;;;;;66.73;35.03;;;;;;;0.74;100.00;95027.13;10391382;28;20215;-52
2022/03/31 09:23:17;;;;;;;61.10;33.27;;;;;;;0.67;100.00;95018.31;10417998;28;20226;-51
2022/03/31 09:28:22;;;;;;;80.07;42.20;;;;;;;0.75;100.00;94999.59;10412603;28;20223;-57
2022/03/31 09:33:34;;;;;;;75.00;36.90;;;;;;;0.77;100.00;94995.13;10411835;28;20214;-56
2022/03/31 09:38:36;;;;;;;74.07;36.63;;;;;;;0.82;100.00;94998.91;10411636;28;20203;-56
2022/03/31 09:43:40;;;;;;;65.23;35.23;;;;;;;0.82;100.00;95013.56;10402225;28;20637;-58
2022/03/31 09:48:41;;;;;;;63.50;34.87;;;;;;;0.86;100.00;95000.25;10381100;28;20197;-54
2022/03/31 09:53:41;;;;;;;64.57;33.90;;;;;;;0.89;100.00;94994.03;10371830;28;20254;-59
2022/03/31 09:58:43;;;;;;;61.83;34.60;;;;;;;0.84;100.00;94996.19;10369781;28;20667;-58
2022/03/31 10:03:44;;;;;;;61.97;34.20;;;;;;;0.88;100.00;94997.53;10391308;28;20587;-54
2022/03/31 10:08:45;;;;;;;59.87;33.47;;;;;;;0.93;100.00;95010.81;10396952;28;20537;-57
2022/03/31 10:13:59;;;;;;;70.77;33.13;;;;;;;0.76;100.00;95002.03;10401891;28;20225;-57
2022/03/31 10:18:59;;;;;;;67.37;35.47;;;;;;;0.66;100.00;95002.06;10373693;28;20294;-56
2022/03/31 10:29:18;;;;;;;56.40;31.77;;;;;;;1.04;100.00;94996.94;10409039;28;20199;-57
2022/03/31 10:34:19;;;;;;;57.57;32.50;;;;;;;1.23;100.00;94993.50;10408035;28;20221;-57
2022/03/31 10:39:21;;;;;;;55.37;31.43;;;;;;;1.28;100.00;94986.16;10408889;28;20187;-58
2022/03/31 10:44:22;;;;;;;57.37;32.50;;;;;;;0.93;100.00;94979.88;10409145;28;20215;-53
2022/03/31 10:49:22;;;;;;;57.00;32.47;;;;;;;1.30;100.00;94984.22;10398558;28;20224;-59
2022/03/31 10:54:26;;;;;;;53.50;31.50;;;;;;;1.04;100.00;94987.47;10394162;28;20225;-56
2022/03/31 10:59:27;;;;;;;53.67;30.67;;;;;;;1.08;100.00;94979.44;10363070;28;20588;-55
2022/03/31 11:04:27;;;;;;;51.97;29.93;;;;;;;0.95;100.00;94982.31;10383207;28;20182;-54
2022/03/31 11:09:29;;;;;;;54.97;30.57;;;;;;;1.16;100.00;94982.13;10385608;28;20314;-57
2022/03/31 11:14:29;;;;;;;50.80;30.50;;;;;;;1.06;100.00;94977.81;10408123;28;20277;-57
2022/03/31 11:19:36;;;;;;;55.10;31.37;;;;;;;1.06;100.00;94980.38;10407410;28;20219;-58
2022/03/31 11:24:37;;;;;;;58.00;30.33;;;;;;;1.16;100.00;94984.69;10406506;28;20203;-56
2022/03/31 11:29:37;;;;;;;60.87;33.13;;;;;;;0.79;100.00;94973.41;10405068;28;20884;-59
2022/03/31 11:34:37;;;;;;;48.00;30.10;;;;;;;0.84;100.00;94968.66;10405264;28;20696;-53
2022/03/31 11:39:46;;;;;;;58.80;31.93;;;;;;;0.92;100.00;94960.22;10405316;28;20241;-59
2022/03/31 11:44:46;;;;;;;55.67;30.53;;;;;;;1.01;100.00;94966.28;10404482;28;20200;-56
2022/03/31 11:49:58;;;;;;;58.17;31.80;;;;;;;0.98;100.00;94964.00;10405641;28;20220;-55
2022/03/31 11:55:00;;;;;;;55.70;31.07;;;;;;;0.87;100.00;94957.25;10405413;28;20682;-59
2022/03/31 12:00:09;;;;;;;56.90;31.10;;;;;;;0.88;100.00;94953.72;10372740;28;20728;-59
2022/03/31 12:05:13;;;;;;;52.43;29.77;;;;;;;0.87;100.00;94944.34;10406767;28;20188;-58
2022/03/31 12:10:14;;;;;;;52.60;30.20;;;;;;;0.87;100.00;94952.09;10405192;28;20283;-60
2022/03/31 12:15:25;;;;;;;50.23;29.13;;;;;;;0.82;100.00;94946.53;10451003;22;20258;-59
2022/03/31 12:20:27;;;;;;;54.07;29.20;;;;;;;0.90;100.00;94946.66;10444513;28;20202;-56
2022/03/31 12:25:34;;;;;;;51.13;29.23;;;;;;;0.92;100.00;94937.03;10425803;28;20244;-56
2022/03/31 12:30:54;;;;;;;52.27;29.03;;;;;;;1.03;100.00;94936.03;10401604;28;20204;-59
2022/03/31 12:36:00;;;;;;;46.03;27.53;;;;;;;1.10;100.00;94928.53;10404937;28;20231;-56
2022/03/31 12:41:00;;;;;;;47.60;27.63;;;;;;;1.12;100.00;94942.09;10402519;28;20578;-54
2022/03/31 12:46:14;;;;;;;47.60;27.70;;;;;;;0.99;100.00;94934.69;10402364;28;20215;-59
2022/03/31 12:51:14;;;;;;;46.53;28.07;;;;;;;0.90;100.00;94931.19;10403002;28;20692;-58
2022/03/31 12:56:23;;;;;;;50.27;27.67;;;;;;;1.13;100.00;94935.97;10405992;28;20228;-56
2022/03/31 13:01:25;;;;;;;47.23;27.47;;;;;;;1.17;100.00;94927.81;10409985;28;20192;-58
2022/03/31 13:06:26;;;;;;;47.97;27.00;;;;;;;1.28;100.00;94929.41;10404365;28;20219;-59
2022/03/31 13:11:27;;;;;;;47.13;26.70;;;;;;;1.21;100.00;94926.59;10409294;28;20276;-54
2022/03/31 13:16:28;;;;;;;42.30;26.70;;;;;;;1.39;100.00;94920.66;10409418;28;20596;-54
2022/03/31 13:21:28;;;;;;;52.10;27.63;;;;;;;1.09;100.00;94925.16;10411950;28;20912;-57
2022/03/31 13:26:32;;;;;;;47.87;27.60;;;;;;;1.15;100.00;94922.00;10411951;28;20721;-58
2022/03/31 13:31:33;;;;;;;50.23;27.67;;;;;;;1.04;100.00;94922.16;10406578;28;20200;-54
2022/03/31 13:36:33;;;;;;;52.80;30.17;;;;;;;1.06;100.00;94917.69;10408696;28;20880;-55
2022/03/31 13:41:33;;;;;;;46.20;28.17;;;;;;;0.99;100.00;94914.06;10410223;28;20294;-56
2022/03/31 13:46:35;;;;;;;48.43;28.80;;;;;;;0.76;100.00;94903.28;10409337;28;20207;-56
2022/03/31 13:51:36;;;;;;;55.67;29.07;;;;;;;0.89;100.00;94899.44;10409000;28;20205;-56
2022/03/31 13:56:39;;;;;;;51.53;29.23;;;;;;;0.84;100.00;94908.53;10410158;28;20230;-55
2022/03/31 14:01:40;;;;;;;53.20;29.50;;;;;;;0.78;100.00;94907.38;10406218;28;20201;-54
2022/03/31 14:06:40;;;;;;;53.00;28.37;;;;;;;0.94;100.00;94908.53;10406618;28;20227;-55
2022/03/31 14:11:41;;;;;;;50.43;28.93;;;;;;;0.74;100.00;94903.44;10408420;28;20282;-54
2022/03/31 14:16:44;;;;;;;50.27;28.00;;;;;;;0.76;100.00;94900.72;10409577;28;20239;-54
2022/03/31 14:21:47;;;;;;;48.20;28.57;;;;;;;0.58;100.00;94892.91;10410198;28;20262;-55
2022/03/31 14:26:49;;;;;;;51.73;28.77;;;;;;;0.67;100.00;94895.47;10409705;28;20211;-58
2022/03/31 14:31:50;;;;;;;50.90;29.60;;;;;;;0.59;100.00;94892.75;10407628;28;20203;-56
2022/03/31 14:36:52;;;;;;;56.43;30.30;;;;;;;0.62;100.00;94894.25;10406376;28;20220;-55
2022/03/31 14:41:53;;;;;;;64.40;32.07;;;;;;;0.49;100.00;94890.22;10408233;28;20197;-55
2022/03/31 14:46:54;;;;;;;62.00;33.10;;;;;;;0.38;100.00;94887.78;10408905;28;21080;-57
2022/03/31 14:51:54;;;;;;;58.20;30.87;;;;;;;0.53;100.00;94893.31;10378095;28;20291;-55
2022/03/31 14:56:54;;;;;;;62.93;31.50;;;;;;;0.37;100.00;94877.63;10393945;28;20269;-57
2022/03/31 15:01:55;;;;;;;61.93;32.37;;;;;;;0.55;100.00;94877.72;10407317;28;20195;-55
2022/03/31 15:06:55;;;;;;;53.77;29.93;;;;;;;0.55;100.00;94870.78;10405145;28;20243;-58
2022/03/31 15:17:16;;;;;;;59.87;32.73;;;;;;;0.30;100.00;94869.66;10406524;28;21070;-57
2022/03/31 15:22:16;;;;;;;63.83;31.00;;;;;;;0.15;100.00;94870.09;10407069;28;20192;-59
2022/03/31 15:27:16;;;;;;;58.33;31.93;;;;;;;0.10;100.00;94866.31;10407460;28;20230;-58
2022/03/31 15:32:17;;;;;;;58.70;30.77;;;;;;;0.03;100.00;94868.63;10406425;28;20249;-55
2022/03/31 15:37:17;;;;;;;53.97;29.73;;;;;;;0.07;100.00;94864.81;10407283;28;20247;-56
2022/03/31 15:42:17;;;;;;;63.57;30.27;;;;;;;0.02;100.00;94867.00;10405038;28;20703;-58
2022/03/31 15:47:21;;;;;;;56.50;29.53;;;;;;;0.08;100.00;94868.22;10405633;28;20753;-59
2022/03/31 15:52:21;;;;;;;54.60;29.10;;;;;;;0.07;100.00;94864.81;10401873;28;20189;-58
2022/03/31 15:57:23;;;;;;;55.37;30.60;;;;;;;-0.04;100.00;94859.81;10403502;28;20706;-59
2022/03/31 16:02:23;;;;;;;54.97;28.90;;;;;;;-0.07;100.00;94866.03;10405017;28;20196;-61
2022/03/31 16:07:23;;;;;;;58.77;31.07;;;;;;;-0.09;100.00;94857.66;10405049;28;20207;-57
2022/03/31 16:12:24;;;;;;;60.47;30.57;;;;;;;-0.14;100.00;94864.97;10400287;28;20356;-59
2022/03/31 16:17:24;;;;;;;68.73;32.43;;;;;;;-0.24;100.00;94862.41;10398569;28;20615;-60
2022/03/31 16:22:26;;;;;;;60.17;31.73;;;;;;;-0.20;100.00;94870.66;10404037;28;20189;-59
2022/03/31 16:27:26;;;;;;;63.27;32.73;;;;;;;-0.22;100.00;94865.63;10404492;28;20292;-60
2022/03/31 16:32:27;;;;;;;63.50;32.97;;;;;;;-0.22;100.00;94869.97;10412170;28;20736;-56
2022/03/31 16:37:27;;;;;;;68.13;35.13;;;;;;;-0.16;100.00;94860.91;10411441;28;20716;-61
2022/03/31 16:42:28;;;;;;;94.60;40.33;;;;;;;-0.17;100.00;94877.28;10404610;28;20196;-58
2022/03/31 16:47:28;;;;;;;70.47;34.83;;;;;;;-0.11;100.00;94872.41;10402913;28;20216;-61
2022/03/31 16:52:28;;;;;;;86.33;35.63;;;;;;;-0.10;100.00;94870.66;10413778;28;20283;-60
2022/03/31 16:57:29;;;;;;;77.03;36.37;;;;;;;-0.12;100.00;94885.41;10417199;28;20227;-58
2022/03/31 17:02:29;;;;;;;65.40;33.20;;;;;;;-0.07;100.00;94886.63;10416574;28;20215;-56
2022/03/31 17:07:30;;;;;;;77.40;36.77;;;;;;;-0.09;100.00;94885.97;10406104;28;20201;-60
2022/03/31 17:12:32;;;;;;;76.40;36.47;;;;;;;-0.04;100.00;94880.41;10402779;28;20183;-62
2022/03/31 17:17:32;;;;;;;77.40;39.53;;;;;;;-0.07;100.00;94878.09;10409336;28;20285;-60
2022/03/31 17:22:32;;;;;;;88.10;45.90;;;;;;;-0.10;100.00;94881.75;10411462;28;20732;-62
2022/03/31 17:27:33;;;;;;;85.70;44.27;;;;;;;-0.07;100.00;94886.63;10410362;28;20218;-61
2022/03/31 17:32:34;;;;;;;70.60;36.80;;;;;;;-0.04;100.00;94881.22;10403525;28;20192;-62
2022/03/31 17:37:34;;;;;;;65.33;36.77;;;;;;;0.03;100.00;94888.38;10403246;28;20319;-59
2022/03/31 17:42:35;;;;;;;66.93;36.40;;;;;;;-0.02;100.00;94887.03;10404671;28;20192;-61
2022/03/31 17:47:35;;;;;;;64.37;35.17;;;;;;;0.04;100.00;94890.03;10408027;28;20220;-61
2022/03/31 17:52:37;;;;;;;57.80;33.37;;;;;;;0.11;100.00;94893.69;10402574;28;20200;-62
2022/03/31 17:57:42;;;;;;;69.73;34.80;;;;;;;0.10;100.00;94892.84;10402388;28;20227;-59
2022/03/31 18:02:46;;;;;;;63.80;34.67;;;;;;;0.05;100.00;94891.66;10410767;28;20583;-62
2022/03/31 18:07:46;;;;;;;65.17;34.60;;;;;;;0.09;100.00;94896.41;10411688;28;20206;-62
2022/03/31 18:12:47;;;;;;;62.77;33.67;;;;;;;0.19;100.00;94901.53;10411125;28;20192;-59
2022/03/31 18:17:48;;;;;;;103.43;55.37;;;;;;;0.16;100.00;94904.38;10438423;22;20236;-59
2022/03/31 18:22:49;;;;;;;67.47;37.47;;;;;;;0.27;100.00;94911.94;10453694;28;20195;-56
2022/03/31 18:27:50;;;;;;;58.90;32.73;;;;;;;0.15;100.00;94918.19;10453233;28;20212;-54
2022/03/31 18:38:12;;;;;;;56.50;33.73;;;;;;;0.17;100.00;94918.88;10451931;28;20223;-56
2022/03/31 18:43:13;;;;;;;49.90;30.67;;;;;;;0.16;100.00;94914.66;10444359;28;20196;-60
2022/03/31 18:48:16;;;;;;;52.70;30.97;;;;;;;0.16;100.00;94917.25;10444507;28;20911;-60
2022/03/31 18:53:17;;;;;;;55.83;32.47;;;;;;;0.05;100.00;94919.97;10440698;28;20196;-58
2022/03/31 18:58:19;;;;;;;66.93;35.20;;;;;;;-0.01;100.00;94923.91;10444113;28;20248;-54
2022/03/31 19:03:22;;;;;;;55.40;32.73;;;;;;;0.08;100.00;94917.94;10445687;28;20236;-52
2022/03/31 19:08:22;;;;;;;59.20;35.80;;;;;;;0.08;100.00;94922.28;10443741;28;20697;-57
2022/03/31 19:13:23;;;;;;;51.53;30.47;;;;;;;0.11;100.00;94922.00;10438397;28;20190;-59
2022/03/31 19:18:23;;;;;;;83.57;47.63;;;;;;;0.13;100.00;94914.94;10439877;28;20245;-57
2022/03/31 19:23:24;;;;;;;56.90;34.57;;;;;;;0.09;100.00;94911.84;10440901;28;20737;-56
2022/03/31 19:28:25;;;;;;;51.13;30.60;;;;;;;0.14;100.00;94911.44;10437055;28;20338;-54
2022/03/31 19:33:25;;;;;;;57.07;34.00;;;;;;;0.02;100.00;94909.94;10437284;28;20881;-52
2022/03/31 19:38:25;;;;;;;52.10;31.03;;;;;;;0.07;100.00;94906.00;10438784;28;20578;-52
2022/03/31 19:43:27;;;;;;;54.50;30.83;;;;;;;0.15;100.00;94903.56;10451764;28;20606;-53
2022/03/31 19:48:27;;;;;;;51.43;30.90;;;;;;;0.20;100.00;94904.91;10450092;28;20246;-52
2022/03/31 19:53:27;;;;;;;47.00;30.20;;;;;;;0.28;100.00;94911.00;10451393;28;20305;-54
2022/03/31 19:58:28;;;;;;;51.73;31.03;;;;;;;0.22;100.00;94903.81;10451786;28;20220;-53
2022/03/31 20:03:29;;;;;;;43.67;27.87;;;;;;;0.21;100.00;94912.50;10451523;28;20203;-52
2022/03/31 20:08:29;;;;;;;52.30;29.13;;;;;;;0.24;100.00;94906.25;10451891;28;20218;-53
2022/03/31 20:13:30;;;;;;;45.37;28.40;;;;;;;0.23;100.00;94902.88;10451976;28;20608;-51
2022/03/31 20:18:32;;;;;;;46.93;28.57;;;;;;;0.12;100.00;94903.84;10451737;28;20230;-54
2022/03/31 20:23:33;;;;;;;40.97;27.00;;;;;;;0.20;100.00;94915.19;10451349;28;20186;-51
2022/03/31 20:28:34;;;;;;;42.70;27.87;;;;;;;0.28;100.00;94913.56;10451551;28;20217;-52
2022/03/31 20:33:34;;;;;;;40.90;27.47;;;;;;;0.27;100.00;94904.22;10451344;28;20743;-51
2022/03/31 20:38:35;;;;;;;45.70;29.17;;;;;;;0.22;100.00;94897.88;10451361;28;20303;-51
2022/03/31 20:43:36;;;;;;;40.33;27.33;;;;;;;0.28;100.00;94892.16;10450203;28;20704;-57
2022/03/31 20:48:38;;;;;;;40.60;28.07;;;;;;;0.34;100.00;94897.56;10448233;28;20211;-55
2022/03/31 20:53:38;;;;;;;40.77;29.03;;;;;;;0.28;100.00;94894.75;10449604;28;20189;-54
2022/03/31 20:58:40;;;;;;;39.70;26.70;;;;;;;0.27;100.00;94890.53;10450323;28;20680;-55
2022/03/31 21:03:40;;;;;;;40.17;26.77;;;;;;;0.30;100.00;94895.41;10450760;28;20188;-54
2022/03/31 21:08:41;;;;;;;37.63;25.77;;;;;;;0.34;100.00;94887.25;10450474;28;20213;-55
2022/03/31 21:13:43;;;;;;;37.87;26.13;;;;;;;0.35;100.00;94890.63;10450526;28;20191;-57
2022/03/31 21:18:45;;;;;;;39.40;26.77;;;;;;;0.31;100.00;94873.88;10457067;28;20266;-54
2022/03/31 21:23:46;;;;;;;39.00;26.63;;;;;;;0.34;100.00;94883.88;10458565;28;20356;-55
2022/03/31 21:28:46;;;;;;;37.43;25.83;;;;;;;0.36;100.00;94884.53;10458479;28;20333;-55
2022/03/31 21:33:47;;;;;;;36.83;24.63;;;;;;;0.34;100.00;94879.53;10458445;28;20220;-53
2022/03/31 21:38:47;;;;;;;33.57;23.73;;;;;;;0.44;100.00;94882.06;10457803;28;20212;-55
2022/03/31 21:43:48;;;;;;;37.77;25.13;;;;;;;0.45;100.00;94888.88;10458287;28;20198;-55
2022/03/31 21:48:48;;;;;;;37.13;24.40;;;;;;;0.40;100.00;94891.06;10455562;28;20212;-57
2022/03/31 21:53:49;;;;;;;32.53;23.17;;;;;;;0.38;100.00;94887.78;10455062;28;20209;-54
2022/03/31 21:58:51;;;;;;;34.93;23.57;;;;;;;0.37;100.00;94893.06;10455194;28;20219;-53
2022/03/31 22:03:51;;;;;;;31.53;23.07;;;;;;;0.33;100.00;94887.41;10455522;28;20185;-52
2022/03/31 22:14:23;;;;;;;34.63;22.50;;;;;;;0.33;100.00;94884.81;10456389;28;20217;-55
2022/03/31 22:19:24;;;;;;;33.07;21.73;;;;;;;0.27;100.00;94875.88;10456260;28;20671;-52
2022/03/31 22:24:26;;;;;;;31.73;21.47;;;;;;;0.31;100.00;94872.09;10454626;28;20200;-52
2022/03/31 22:29:27;;;;;;;36.73;21.60;;;;;;;0.19;100.00;94878.34;10454676;28;20725;-56
2022/03/31 22:34:27;;;;;;;29.83;19.97;;;;;;;0.23;100.00;94890.00;10455081;28;20215;-54
2022/03/31 22:39:28;;;;;;;29.93;20.23;;;;;;;0.22;100.00;94892.72;10455907;28;20213;-55
2022/03/31 22:44:29;;;;;;;27.57;18.40;;;;;;;0.20;100.00;94890.28;10454817;28;20199;-54
2022/03/31 22:49:29;;;;;;;26.40;17.93;;;;;;;0.17;100.00;94893.13;10454972;28;20210;-55
2022/03/31 22:54:30;;;;;;;26.20;18.03;;;;;;;0.04;100.00;94895.97;10455368;28;20668;-56
2022/03/31 22:59:31;;;;;;;27.37;17.73;;;;;;;-0.01;100.00;94888.66;10454083;28;20219;-57
2022/03/31 23:04:31;;;;;;;31.93;18.33;;;;;;;0.03;100.00;94888.38;10454828;28;20284;-56
2022/03/31 23:09:31;;;;;;;28.53;17.10;;;;;;;0.10;100.00;94899.78;10453277;28;20215;-57